Time;durP1;ratioP1;P1;durP2;ratioP2;P2;SDS_P1;SDS_P2;PMS_P1;PMS_P2;Temp;Humidity;BMP_temperature;BMP_pressure;BME280_temperature;BME280_humidity;BME280_pressure;Samples;Min_cycle;Max_cycle;Signal;HPM_P1;HPM_P2
2022/04/12 05:58:18;;;;;;;59.72;28.23;;;;;;;;;;5050473;23;20065;-67
2022/04/12 06:00:44;;;;;;;55.90;28.65;;;;;;;;;;4953637;29;20476;-64
2022/04/12 06:03:10;;;;;;;60.78;27.42;;;;;;;;;;4952804;29;20036;-64
2022/04/12 06:05:36;;;;;;;57.70;28.27;;;;;;;;;;4938417;29;20031;-64
2022/04/12 06:08:03;;;;;;;57.42;28.83;;;;;;;;;;4937908;29;20046;-66
2022/04/12 06:10:30;;;;;;;55.13;27.85;;;;;;;;;;4931776;29;20373;-66
2022/04/12 06:12:56;;;;;;;54.65;26.27;;;;;;;;;;4957073;29;20023;-64
2022/04/12 06:15:22;;;;;;;61.10;27.02;;;;;;;;;;4957677;29;20082;-67
2022/04/12 06:17:48;;;;;;;51.60;27.15;;;;;;;;;;4939230;29;20129;-64
2022/04/12 06:20:15;;;;;;;55.53;27.67;;;;;;;;;;4956609;29;20083;-64
2022/04/12 06:22:42;;;;;;;58.05;28.65;;;;;;;;;;4956126;29;20495;-66
2022/04/12 06:25:09;;;;;;;59.20;28.58;;;;;;;;;;4956719;29;20035;-66
2022/04/12 06:27:37;;;;;;;55.55;28.25;;;;;;;;;;4940250;29;20032;-66
2022/04/12 06:30:07;;;;;;;62.90;27.27;;;;;;;;;;4957392;29;20033;-66
2022/04/12 06:32:34;;;;;;;56.78;27.40;;;;;;;;;;4940136;29;20118;-65
2022/04/12 06:35:00;;;;;;;52.05;26.10;;;;;;;;;;4940174;29;20383;-65
2022/04/12 06:37:27;;;;;;;51.42;26.13;;;;;;;;;;4939374;29;20035;-65
2022/04/12 06:39:53;;;;;;;59.53;25.58;;;;;;;;;;4957028;29;20110;-64
2022/04/12 06:42:20;;;;;;;52.70;25.45;;;;;;;;;;4956480;29;20023;-63
2022/04/12 06:44:46;;;;;;;48.05;23.77;;;;;;;;;;4956960;29;20450;-66
2022/04/12 06:47:14;;;;;;;37.67;20.52;;;;;;;;;;4940038;29;20070;-66
2022/04/12 06:49:42;;;;;;;39.10;19.08;;;;;;;;;;4957297;29;20039;-68
2022/04/12 06:52:09;;;;;;;39.75;19.98;;;;;;;;;;4957004;29;20027;-65
2022/04/12 06:54:35;;;;;;;41.38;18.63;;;;;;;;;;4957257;29;20046;-66
2022/04/12 06:57:01;;;;;;;39.50;18.92;;;;;;;;;;4957073;29;20113;-65
2022/04/12 06:59:28;;;;;;;34.83;18.83;;;;;;;;;;4939373;29;20051;-66
2022/04/12 07:01:56;;;;;;;34.80;17.95;;;;;;;;;;4956656;28;20031;-68
2022/04/12 07:04:22;;;;;;;38.53;18.50;;;;;;;;;;4971667;28;20031;-67
2022/04/12 07:06:48;;;;;;;40.92;19.08;;;;;;;;;;4956907;29;20059;-65
2022/04/12 07:09:20;;;;;;;47.60;19.83;;;;;;;;;;4956835;29;20066;-66
2022/04/12 07:11:50;;;;;;;45.20;23.05;;;;;;;;;;4956942;29;20031;-66
2022/04/12 07:14:16;;;;;;;50.30;22.98;;;;;;;;;;4956792;29;20027;-66
2022/04/12 07:16:42;;;;;;;57.13;23.02;;;;;;;;;;4971506;28;20122;-65
2022/04/12 07:19:08;;;;;;;55.38;23.52;;;;;;;;;;4956393;29;20036;-64
2022/04/12 07:21:35;;;;;;;52.45;22.38;;;;;;;;;;4956622;29;20031;-66
2022/04/12 07:24:03;;;;;;;47.40;23.10;;;;;;;;;;4956770;29;20114;-70
2022/04/12 07:26:30;;;;;;;50.25;23.23;;;;;;;;;;4956479;29;20070;-66
2022/04/12 07:28:56;;;;;;;51.10;21.25;;;;;;;;;;4971355;28;20027;-65
2022/04/12 07:31:22;;;;;;;51.42;21.20;;;;;;;;;;4971179;28;20445;-66
2022/04/12 07:33:48;;;;;;;45.35;22.10;;;;;;;;;;4956098;29;20032;-67
2022/04/12 07:36:15;;;;;;;51.03;20.75;;;;;;;;;;4970916;28;20069;-66
2022/04/12 07:38:41;;;;;;;47.15;18.42;;;;;;;;;;4956113;29;20082;-66
2022/04/12 07:41:09;;;;;;;46.85;19.42;;;;;;;;;;4955702;29;20325;-65
2022/04/12 07:43:35;;;;;;;44.35;19.90;;;;;;;;;;4956303;29;20030;-65
2022/04/12 07:46:01;;;;;;;41.10;18.63;;;;;;;;;;4970875;28;20460;-67
2022/04/12 07:48:27;;;;;;;42.33;18.60;;;;;;;;;;4952535;29;20182;-66
2022/04/12 07:50:54;;;;;;;42.15;18.45;;;;;;;;;;4941305;29;20073;-66
2022/04/12 07:53:20;;;;;;;33.78;18.02;;;;;;;;;;4956083;29;20106;-65
2022/04/12 07:55:47;;;;;;;31.77;17.00;;;;;;;;;;4955964;29;20038;-68
2022/04/12 07:58:13;;;;;;;34.92;17.75;;;;;;;;;;4955830;29;20027;-67
2022/04/12 08:00:39;;;;;;;38.55;18.85;;;;;;;;;;4956101;29;20098;-68
2022/04/12 08:03:05;;;;;;;35.75;18.27;;;;;;;;;;4956051;29;20045;-68
2022/04/12 08:05:33;;;;;;;32.17;16.98;;;;;;;;;;4955914;29;20035;-68
2022/04/12 08:07:59;;;;;;;35.45;17.17;;;;;;;;;;4938494;29;20027;-67
2022/04/12 08:10:25;;;;;;;33.58;13.68;;;;;;;;;;4938616;29;20487;-66
2022/04/12 08:12:52;;;;;;;26.65;14.85;;;13.60;90.90;;;;;;4955257;28;20028;-68
2022/04/12 08:15:19;;;;;;;33.63;14.52;;;13.50;86.30;;;;;;4955867;29;20063;-68
2022/04/12 08:17:45;;;;;;;38.28;15.85;;;13.80;86.10;;;;;;4956040;29;20419;-67
2022/04/12 08:20:13;;;;;;;33.17;18.30;;;14.00;89.70;;;;;;4955740;29;20114;-69
2022/04/12 08:22:40;;;;;;;22.67;12.75;;;14.30;85.50;;;;;;4955648;29;20027;-69
2022/04/12 08:25:07;;;;;;;15.05;7.38;;;14.40;83.20;;;;;;4955681;29;20052;-68
2022/04/12 08:27:33;;;;;;;21.50;10.75;;;14.50;78.70;;;;;;4955094;29;20387;-68
2022/04/12 08:29:59;;;;;;;25.25;9.93;;;14.60;79.80;;;;;;4955511;29;20037;-67
2022/04/12 08:32:26;;;;;;;21.60;10.88;;;;;;;;;;4955537;29;20079;-66
2022/04/12 08:34:53;;;;;;;14.02;8.10;;;;;;;;;;4938231;29;20037;-67
2022/04/12 08:37:19;;;;;;;11.25;6.78;;;15.20;79.90;;;;;;4955467;29;20121;-69
2022/04/12 08:39:45;;;;;;;9.65;4.95;;;15.40;80.10;;;;;;4955176;29;20082;-69
2022/04/12 08:42:11;;;;;;;9.55;4.88;;;15.50;78.30;;;;;;4955213;29;20035;-65
2022/04/12 08:44:39;;;;;;;8.20;4.53;;;15.70;76.90;;;;;;4922388;29;20648;-68
2022/04/12 08:47:07;;;;;;;10.30;5.18;;;15.90;73.40;;;;;;4937825;29;20089;-67
2022/04/12 08:49:38;;;;;;;6.75;3.80;;;16.00;79.70;;;;;;4955078;29;20039;-66
2022/04/12 08:52:04;;;;;;;6.78;4.10;;;16.00;72.70;;;;;;4955087;29;20170;-66
2022/04/12 08:54:32;;;;;;;9.57;4.00;;;16.10;72.20;;;;;;4955133;29;20027;-65
2022/04/12 08:56:58;;;;;;;6.20;4.05;;;16.10;71.90;;;;;;4937648;29;20031;-65
2022/04/12 08:59:26;;;;;;;5.40;3.83;;;16.20;73.60;;;;;;4937476;29;20484;-67
2022/04/12 09:01:52;;;;;;;6.68;3.60;;;16.50;72.20;;;;;;4954960;29;20023;-65
2022/04/12 09:04:17;;;;;;;8.60;3.65;;;16.60;71.00;;;;;;4955083;29;20035;-65
2022/04/12 09:06:55;;;;;;;6.38;3.80;;;16.70;70.80;;;;;;4954490;29;20057;-67
2022/04/12 09:09:25;;;;;;;4.25;2.15;;;17.00;72.20;;;;;;4954902;29;20028;-67
2022/04/12 09:12:02;;;;;;;2.70;1.90;;;17.10;71.10;;;;;;4937698;29;20086;-66
2022/04/12 09:14:46;;;;;;;6.25;2.53;;;17.30;65.50;;;;;;4937583;29;20382;-66
2022/04/12 09:17:19;;;;;;;3.78;2.50;;;17.30;64.20;;;;;;4954824;29;20038;-65
2022/04/12 09:19:51;;;;;;;5.20;2.83;;;17.50;66.80;;;;;;4954959;29;20027;-65
2022/04/12 09:22:18;;;;;;;;;;;17.50;65.20;;;;;;4954941;29;20027;-66
2022/04/12 09:25:01;;;;;;;9.88;3.40;;;17.80;65.60;;;;;;4957502;28;19913;-65
2022/04/12 09:27:28;;;;;;;3.03;2.40;;;17.70;65.80;;;;;;4941349;29;20035;-66
2022/04/12 09:30:03;;;;;;;6.72;2.78;;;17.80;66.00;;;;;;4958668;29;20035;-65
2022/04/12 09:32:34;;;;;;;5.03;3.13;;;17.80;64.50;;;;;;4958268;29;20145;-66
2022/04/12 09:35:01;;;;;;;46.17;10.07;;;17.90;65.80;;;;;;4958343;29;20384;-67
2022/04/12 09:37:32;;;;;;;20.73;5.38;;;17.80;67.10;;;;;;4958578;29;20046;-65
2022/04/12 09:40:01;;;;;;;14.02;4.78;;;17.80;66.90;;;;;;4941207;29;20027;-66
2022/04/12 09:43:00;;;;;;;6.03;3.78;;;17.80;66.40;;;;;;4958212;29;20372;-66
2022/04/12 09:45:28;;;;;;;12.00;3.70;;;17.90;66.20;;;;;;4898747;29;20044;-66
2022/04/12 09:47:59;;;;;;;5.95;2.20;;;18.30;63.60;;;;;;4898861;29;20136;-66
2022/04/12 09:50:27;;;;;;;18.38;3.38;;;18.70;65.80;;;;;;4898932;29;20071;-65
2022/04/12 09:52:57;;;;;;;7.22;3.45;;;19.10;67.60;;;;;;4898587;29;20036;-67
2022/04/12 09:55:37;;;;;;;7.43;2.83;;;19.30;65.60;;;;;;4899158;29;20044;-66
2022/04/12 09:58:06;;;;;;;12.75;3.63;;;19.60;66.50;;;;;;4898933;29;20388;-66
2022/04/12 10:00:33;;;;;;;5.43;3.05;;;19.90;67.00;;;;;;4898551;29;20088;-67
2022/04/12 10:03:06;;;;;;;4.47;2.75;;;20.00;61.20;;;;;;4898520;29;20513;-67
2022/04/12 10:05:32;;;;;;;5.38;2.65;;;20.20;62.30;;;;;;4898700;29;20032;-67
2022/04/12 10:08:01;;;;;;;5.15;2.50;;;20.10;59.60;;;;;;4898394;29;20458;-67
2022/04/12 10:10:28;;;;;;;6.47;3.13;;;20.40;61.30;;;;;;4898415;29;20036;-66
2022/04/12 10:12:56;;;;;;;7.30;2.88;;;20.50;60.10;;;;;;4898493;29;20119;-66
2022/04/12 10:15:22;;;;;;;3.78;2.28;;;20.70;63.50;;;;;;4898495;29;20493;-67
2022/04/12 10:17:49;;;;;;;2.65;2.08;;;20.60;57.90;;;;;;4898443;29;20650;-67
2022/04/12 10:20:18;;;;;;;5.35;2.40;;;20.70;57.00;;;;;;4898240;29;20032;-67
2022/04/12 10:22:48;;;;;;;3.05;2.00;;;20.90;57.80;;;;;;4952433;29;20067;-68
2022/04/12 10:25:22;;;;;;;2.07;1.83;;;;;;;;;;4957662;29;20065;-67
2022/04/12 10:27:53;;;;;;;2.72;2.10;;;21.00;56.70;;;;;;4957581;29;20046;-68
2022/04/12 10:30:19;;;;;;;2.65;1.60;;;21.40;56.60;;;;;;4940228;29;20058;-66
2022/04/12 10:33:08;;;;;;;3.83;2.13;;;21.20;56.30;;;;;;4953374;29;20027;-66
2022/04/12 10:35:45;;;;;;;1.83;1.52;;;21.30;57.90;;;;;;4934279;28;20027;-65
2022/04/12 10:38:16;;;;;;;13.57;2.22;;;22.00;54.70;;;;;;4957347;29;20027;-66
2022/04/12 10:40:49;;;;;;;2.85;1.50;;;23.40;56.90;;;;;;4957434;29;20035;-65
2022/04/12 10:43:21;;;;;;;4.55;2.03;;;;;;;;;;4957585;29;20032;-65
2022/04/12 10:45:48;;;;;;;;;;;24.10;54.40;;;;;;4957535;29;20027;-64
2022/04/12 10:48:22;;;;;;;3.05;1.50;;;24.40;53.50;;;;;;4957161;29;19917;-65
2022/04/12 10:50:58;;;;;;;2.55;1.80;;;25.10;51.70;;;;;;4939780;29;20031;-65
2022/04/12 10:53:44;;;;;;;2.33;1.92;;;26.20;48.40;;;;;;4957475;29;20035;-65
2022/04/12 10:56:16;;;;;;;2.67;1.73;;;26.50;51.30;;;;;;4943268;29;20122;-64
2022/04/12 10:58:43;;;;;;;2.35;1.80;;;26.00;48.50;;;;;;4956624;29;20051;-67
2022/04/12 11:01:30;;;;;;;3.45;2.00;;;25.60;47.20;;;;;;4956918;29;20035;-65
2022/04/12 11:03:57;;;;;;;3.50;1.75;;;26.00;48.00;;;;;;4956993;29;20031;-66
2022/04/12 11:06:28;;;;;;;4.75;1.73;;;25.90;47.50;;;;;;4939676;29;20067;-67
2022/04/12 11:09:16;;;;;;;3.30;1.80;;;;;;;;;;4944243;29;20111;-67
2022/04/12 11:11:44;;;;;;;8.02;2.13;;;;;;;;;;4933738;29;20027;-68
2022/04/12 11:14:32;;;;;;;4.50;1.92;;;29.00;44.70;;;;;;4937485;29;20099;-66
2022/04/12 11:17:02;;;;;;;3.10;1.80;;;28.50;44.30;;;;;;4920408;29;20035;-67
2022/04/12 11:19:29;;;;;;;4.07;1.90;;;;;;;;;;4936624;29;20050;-67
2022/04/12 11:21:57;;;;;;;1.92;1.75;;;28.40;45.10;;;;;;4935995;29;20023;-66
2022/04/12 11:24:24;;;;;;;5.25;1.90;;;28.30;43.50;;;;;;4935836;29;20035;-66
2022/04/12 11:27:09;;;;;;;3.13;1.42;;;27.80;44.60;;;;;;4937222;29;20031;-65
2022/04/12 11:29:37;;;;;;;2.65;1.65;;;;;;;;;;4937281;29;20032;-65
2022/04/12 11:32:04;;;;;;;2.65;1.60;;;28.20;43.40;;;;;;4937342;29;20487;-66
2022/04/12 11:34:31;;;;;;;6.53;2.00;;;28.00;44.20;;;;;;4937080;29;20024;-66
2022/04/12 11:36:57;;;;;;;2.75;1.67;;;;;;;;;;4937052;29;20063;-66
2022/04/12 11:39:27;;;;;;;3.42;1.55;;;;;;;;;;4937100;29;20035;-67
2022/04/12 11:42:01;;;;;;;2.42;1.40;;;30.30;41.10;;;;;;4937181;29;20024;-67
2022/04/12 11:44:28;;;;;;;5.97;1.90;;;32.50;40.10;;;;;;4937031;29;20031;-66
2022/04/12 11:47:02;;;;;;;1.77;1.60;;;32.60;48.80;;;;;;4935950;29;20031;-68
2022/04/12 11:49:36;;;;;;;1.92;1.70;;;;;;;;;;4936862;29;20033;-66
2022/04/12 11:52:05;;;;;;;2.42;1.80;;;33.30;39.10;;;;;;4936759;29;20460;-67
2022/04/12 11:54:32;;;;;;;1.80;1.70;;;33.10;40.00;;;;;;4936992;29;20039;-67
2022/04/12 11:57:14;;;;;;;2.90;1.50;;;31.50;38.80;;;;;;4936771;29;20062;-68
2022/04/12 11:59:48;;;;;;;2.78;1.85;;;;;;;;;;4919356;29;20048;-67
2022/04/12 12:02:16;;;;;;;3.58;1.58;;;30.20;38.60;;;;;;4936712;29;20028;-69
2022/04/12 12:04:45;;;;;;;1.63;1.52;;;32.10;38.30;;;;;;4936573;29;20039;-68
2022/04/12 12:07:12;;;;;;;3.45;1.67;;;32.20;39.80;;;;;;4936815;29;20039;-67
2022/04/12 12:09:39;;;;;;;3.08;1.60;;;32.60;38.80;;;;;;4936462;29;20055;-66
2022/04/12 12:12:07;;;;;;;1.95;1.75;;;32.30;39.40;;;;;;4936275;29;20039;-68
2022/04/12 12:14:36;;;;;;;1.67;1.48;;;32.70;39.60;;;;;;4936279;29;20028;-68
2022/04/12 12:17:18;;;;;;;2.00;1.40;;;32.10;39.00;;;;;;4936755;29;20063;-66
2022/04/12 12:19:45;;;;;;;2.10;1.42;;;32.90;38.80;;;;;;4918992;29;20091;-67
2022/04/12 12:22:13;;;;;;;2.03;1.50;;;33.60;38.70;;;;;;4936361;29;20464;-67
2022/04/12 12:24:56;;;;;;;6.38;1.58;;;34.90;37.40;;;;;;4935890;29;20063;-67
2022/04/12 12:27:26;;;;;;;2.13;1.67;;;35.30;37.70;;;;;;4934527;29;20035;-66
2022/04/12 12:29:52;;;;;;;3.38;1.30;;;35.60;37.50;;;;;;4936494;29;20028;-67
2022/04/12 12:32:17;;;;;;;3.38;1.90;;;35.70;36.30;;;;;;4935919;29;20177;-66
2022/04/12 12:34:45;;;;;;;2.83;1.83;;;34.80;42.90;;;;;;4936097;29;20047;-69
2022/04/12 12:37:11;;;;;;;1.95;1.60;;;34.40;45.60;;;;;;4935916;29;20028;-69
2022/04/12 12:39:40;;;;;;;2.35;1.50;;;34.20;45.40;;;;;;4936043;29;20055;-70
2022/04/12 12:42:07;;;;;;;3.25;1.50;;;34.10;46.70;;;;;;4950642;29;20037;-70
2022/04/12 12:44:35;;;;;;;1.45;1.35;;;;;;;;;;4935862;29;20036;-69
2022/04/12 12:47:02;;;;;;;2.15;1.15;;;34.50;49.90;;;;;;4935895;29;20035;-71
2022/04/12 12:49:39;;;;;;;3.15;1.50;;;;;;;;;;4936185;29;20472;-70
2022/04/12 12:52:10;;;;;;;2.20;1.50;;;34.30;35.80;;;;;;4935896;29;20071;-69
2022/04/12 12:54:37;;;;;;;4.88;1.42;;;34.60;36.10;;;;;;4935793;29;20443;-69
2022/04/12 12:57:05;;;;;;;3.08;1.50;;;;;;;;;;4935937;29;20115;-68
2022/04/12 12:59:32;;;;;;;3.10;1.52;;;;;;;;;;4935334;29;20039;-67
2022/04/12 13:02:10;;;;;;;2.00;1.52;;;35.40;34.80;;;;;;4918677;29;20036;-66
2022/04/12 13:04:36;;;;;;;1.83;1.70;;;36.40;36.90;;;;;;4918473;29;20047;-68
2022/04/12 13:07:07;;;;;;;5.82;1.48;;;36.90;33.80;;;;;;4935598;29;20111;-70
2022/04/12 13:09:43;;;;;;;3.33;1.75;;;35.40;34.20;;;;;;4935754;29;20028;-67
2022/04/12 13:12:10;;;;;;;5.05;1.80;;;33.60;36.10;;;;;;4935780;29;20071;-68
2022/04/12 13:14:37;;;;;;;3.13;1.95;;;33.80;37.30;;;;;;4918577;29;20063;-68
2022/04/12 13:17:03;;;;;;;3.78;1.90;;;33.40;35.70;;;;;;4935655;29;20027;-69
2022/04/12 13:19:32;;;;;;;5.05;1.90;;;33.30;37.20;;;;;;4935572;29;20075;-68
2022/04/12 13:21:59;;;;;;;3.55;2.15;;;33.70;36.30;;;;;;4935287;29;20023;-67
2022/04/12 13:24:29;;;;;;;3.42;1.88;;;33.40;35.40;;;;;;4934843;29;20493;-68
2022/04/12 13:26:56;;;;;;;2.63;1.92;;;33.10;35.40;;;;;;4934489;29;20436;-68
2022/04/12 13:29:24;;;;;;;6.95;2.63;;;34.50;35.40;;;;;;4934572;29;20444;-67
2022/04/12 13:31:50;;;;;;;6.47;2.42;;;35.20;36.50;;;;;;4935762;29;20118;-68
2022/04/12 13:34:17;;;;;;;4.50;2.75;;;35.20;37.00;;;;;;4933959;29;20647;-68
2022/04/12 13:36:43;;;;;;;3.80;2.45;;;35.80;36.60;;;;;;4935709;29;20115;-68
2022/04/12 13:39:09;;;;;;;3.00;2.13;;;36.10;35.40;;;;;;4918400;29;20445;-68
2022/04/12 13:41:36;;;;;;;2.40;2.20;;;35.60;34.60;;;;;;4935510;29;20051;-68
2022/04/12 13:44:03;;;;;;;5.43;2.25;;;34.30;35.50;;;;;;4918452;29;20066;-68
2022/04/12 13:46:29;;;;;;;2.20;1.63;;;34.50;36.60;;;;;;4935416;29;20102;-68
2022/04/12 13:48:55;;;;;;;2.97;2.42;;;34.90;35.50;;;;;;4935129;29;20028;-68
2022/04/12 13:51:21;;;;;;;2.63;2.22;;;;;;;;;;4935349;29;20074;-68
2022/04/12 13:53:48;;;;;;;4.90;3.08;;;35.90;35.30;;;;;;4935780;29;20024;-68
2022/04/12 13:56:13;;;;;;;4.88;4.00;;;35.70;36.30;;;;;;4935518;29;20036;-68
2022/04/12 13:58:39;;;;;;;4.68;2.50;;;36.40;36.20;;;;;;4935302;29;20511;-68
2022/04/12 14:01:06;;;;;;;3.45;2.00;;;36.50;35.10;;;;;;4935347;29;20032;-68
2022/04/12 14:03:33;;;;;;;3.22;2.13;;;35.50;34.30;;;;;;4935192;29;20028;-68
2022/04/12 14:06:02;;;;;;;5.60;2.45;;;35.40;35.30;;;;;;4918156;29;20059;-68
2022/04/12 14:08:33;;;;;;;2.38;1.83;;;35.10;35.00;;;;;;4935194;29;20461;-68
2022/04/12 14:11:00;;;;;;;2.90;2.10;;;35.70;34.70;;;;;;4936341;29;20493;-68
2022/04/12 14:13:29;;;;;;;3.20;2.03;;;36.80;35.30;;;;;;4938692;29;20115;-68
2022/04/12 14:15:56;;;;;;;2.88;2.03;;;36.70;35.20;;;;;;4938638;29;20425;-67
2022/04/12 14:18:21;;;;;;;2.97;2.35;;;36.30;35.00;;;;;;4938755;29;20083;-67
2022/04/12 14:20:47;;;;;;;4.30;2.28;;;35.60;35.40;;;;;;4938737;29;20035;-67
2022/04/12 14:23:14;;;;;;;4.93;2.67;;;36.40;35.30;;;;;;4938946;29;20027;-68
2022/04/12 14:25:40;;;;;;;4.85;2.47;;;36.00;35.50;;;;;;4938835;29;20059;-68
2022/04/12 14:28:11;;;;;;;4.07;2.13;;;37.50;35.20;;;;;;4938566;29;20039;-68
2022/04/12 14:30:39;;;;;;;2.03;1.88;;;38.00;34.80;;;;;;4938282;29;20441;-68
2022/04/12 14:33:06;;;;;;;4.10;2.13;;;;;;;;;;4938324;29;20031;-68
2022/04/12 14:35:33;;;;;;;3.90;2.10;;;37.40;34.60;;;;;;4938356;29;20038;-68
2022/04/12 14:38:00;;;;;;;3.08;1.70;;;36.90;35.00;;;;;;4938249;29;20472;-68
2022/04/12 14:40:26;;;;;;;2.95;2.70;;;37.40;34.80;;;;;;4938159;29;20058;-68
2022/04/12 14:42:52;;;;;;;3.47;2.10;;;36.80;34.60;;;;;;4937920;29;20568;-68
2022/04/12 14:45:21;;;;;;;4.38;2.40;;;35.60;35.30;;;;;;4938533;29;20115;-67
2022/04/12 14:47:50;;;;;;;4.40;2.10;;;34.60;35.30;;;;;;4920929;29;20036;-68
2022/04/12 14:50:17;;;;;;;3.92;2.10;;;35.30;35.50;;;;;;4938241;29;20030;-68
2022/04/12 14:52:42;;;;;;;4.22;2.63;;;35.50;35.40;;;;;;4937862;29;20396;-68
2022/04/12 14:55:09;;;;;;;2.42;2.22;;;36.00;35.60;;;;;;4921163;29;20036;-67
2022/04/12 14:57:38;;;;;;;4.55;3.95;;;36.00;35.80;;;;;;4938414;29;20031;-68
2022/04/12 15:00:06;;;;;;;5.55;3.03;;;36.20;35.20;;;;;;4920490;29;20047;-68
2022/04/12 15:02:32;;;;;;;6.00;3.85;;;36.50;35.20;;;;;;4937620;29;20173;-68
2022/04/12 15:04:58;;;;;;;4.22;2.85;;;36.10;35.50;;;;;;4937977;29;20063;-68
2022/04/12 15:07:24;;;;;;;3.42;2.40;;;36.30;35.20;;;;;;4938146;29;20481;-68
2022/04/12 15:09:50;;;;;;;3.78;2.50;;;;;;;;;;4920807;29;20031;-66
2022/04/12 15:12:17;;;;;;;4.80;3.10;;;36.80;73.90;;;;;;4952170;29;20110;-66
2022/04/12 15:14:44;;;;;;;4.88;3.10;;;37.10;72.70;;;;;;4937729;29;20028;-66
2022/04/12 15:17:10;;;;;;;4.63;2.97;;;36.30;62.50;;;;;;4937671;29;20040;-66
2022/04/12 15:19:36;;;;;;;4.95;2.63;;;36.50;35.20;;;;;;4937651;29;20031;-66
2022/04/12 15:22:02;;;;;;;6.03;5.13;;;36.80;34.90;;;;;;4937309;29;20028;-66
2022/04/12 15:24:30;;;;;;;6.55;4.38;;;36.70;35.00;;;;;;4920429;29;20547;-66
2022/04/12 15:27:11;;;;;;;3.45;2.72;;;36.30;34.80;;;;;;4940863;29;20055;-67
2022/04/12 15:29:37;;;;;;;4.25;3.80;;;36.40;34.80;;;;;;4931938;29;20083;-65
2022/04/12 15:32:04;;;;;;;5.43;3.50;;;36.10;35.30;;;;;;4937340;29;20028;-65
2022/04/12 15:34:30;;;;;;;4.82;2.60;;;35.50;34.20;;;;;;4935796;29;20110;-65
2022/04/12 15:36:56;;;;;;;5.70;2.20;;;36.00;35.20;;;;;;4935855;29;20512;-65
2022/04/12 15:39:25;;;;;;;5.20;3.00;;;35.90;35.20;;;;;;4939772;29;20060;-66
2022/04/12 15:41:54;;;;;;;10.85;6.97;;;34.20;34.20;;;;;;4954910;29;20530;-65
2022/04/12 15:44:20;;;;;;;6.35;2.30;;;31.90;36.40;;;;;;4922633;29;20468;-64
2022/04/12 15:46:47;;;;;;;4.03;2.65;;;;;;;;;;4970916;28;20421;-65
2022/04/12 15:49:14;;;;;;;6.43;2.90;;;28.10;40.40;;;;;;4955317;29;20376;-65
2022/04/12 15:51:40;;;;;;;5.45;2.65;;;27.30;41.10;;;;;;4970378;28;20131;-64
2022/04/12 15:54:06;;;;;;;8.60;2.75;;;;;;;;;;4956085;29;20127;-64
2022/04/12 15:56:32;;;;;;;44.17;4.55;;;27.30;46.80;;;;;;4948816;29;20028;-67
2022/04/12 15:58:58;;;;;;;4.70;2.50;;;26.60;44.20;;;;;;4936350;29;20052;-64
2022/04/12 16:01:24;;;;;;;3.40;2.25;;;25.90;44.60;;;;;;4936709;29;20027;-65
2022/04/12 16:03:50;;;;;;;4.32;2.13;;;25.90;45.40;;;;;;4919390;29;20484;-64
2022/04/12 16:06:17;;;;;;;4.68;2.08;;;26.30;44.80;;;;;;4920282;29;20063;-64
2022/04/12 16:08:44;;;;;;;3.85;2.20;;;25.60;44.70;;;;;;4938657;29;20035;-64
2022/04/12 16:11:13;;;;;;;7.32;2.70;;;26.00;45.70;;;;;;4955514;29;20484;-66
2022/04/12 16:13:39;;;;;;;5.93;2.35;;;26.10;45.40;;;;;;4955267;29;20452;-66
2022/04/12 16:16:07;;;;;;;5.38;2.45;;;27.60;43.70;;;;;;4970217;28;20031;-67
2022/04/12 16:18:33;;;;;;;10.07;2.60;;;;;;;;;;4935382;29;20059;-64
2022/04/12 16:20:59;;;;;;;5.93;2.33;;;27.70;43.60;;;;;;4939230;29;20024;-65
2022/04/12 16:23:25;;;;;;;5.13;2.40;;;26.60;42.80;;;;;;4935794;29;20388;-65
2022/04/12 16:25:52;;;;;;;6.07;2.78;;;;;;;;;;4935887;29;20058;-65
2022/04/12 16:28:17;;;;;;;4.50;2.17;;;25.80;44.80;;;;;;4935283;29;20042;-63
2022/04/12 16:30:44;;;;;;;9.38;2.55;;;26.30;45.10;;;;;;4935551;29;20032;-63
2022/04/12 16:33:11;;;;;;;10.55;2.47;;;27.20;43.70;;;;;;4929272;29;20024;-62
2022/04/12 16:35:39;;;;;;;6.57;2.53;;;25.20;44.90;;;;;;4954858;29;20032;-62
2022/04/12 16:38:07;;;;;;;7.43;2.60;;;25.00;46.20;;;;;;4938046;29;20046;-63
2022/04/12 16:40:33;;;;;;;7.65;3.30;;;25.70;44.90;;;;;;4937601;29;20123;-64
2022/04/12 16:43:00;;;;;;;6.55;3.40;;;;;;;;;;4955147;29;20027;-63
2022/04/12 16:45:27;;;;;;;14.18;3.90;;;26.50;81.70;;;;;;4955055;29;20110;-63
2022/04/12 16:47:53;;;;;;;7.20;2.63;;;26.40;48.80;;;;;;4955147;29;20027;-63
2022/04/12 16:50:20;;;;;;;5.00;2.05;;;25.30;45.00;;;;;;4955029;29;20039;-63
2022/04/12 16:52:49;;;;;;;4.88;2.05;;;24.50;45.90;;;;;;4955054;29;20109;-63
2022/04/12 16:55:18;;;;;;;4.68;2.22;;;24.00;46.70;;;;;;4954936;29;20027;-62
2022/04/12 16:57:43;;;;;;;7.90;2.72;;;23.00;48.60;;;;;;4954837;29;20039;-64
2022/04/12 17:00:12;;;;;;;4.72;2.78;;;22.50;49.60;;;;;;4954817;29;20051;-63
2022/04/12 17:02:37;;;;;;;6.53;3.75;;;22.10;50.60;;;;;;4954598;29;20428;-63
2022/04/12 17:05:04;;;;;;;8.70;4.38;;;21.60;51.00;;;;;;4954534;29;20028;-62
2022/04/12 17:07:30;;;;;;;7.68;4.10;;;21.20;51.80;;;;;;4954942;29;20090;-65
2022/04/12 17:09:56;;;;;;;10.52;6.00;;;20.90;53.30;;;;;;4954885;29;20031;-62
2022/04/12 17:12:23;;;;;;;11.10;6.50;;;20.50;53.10;;;;;;4954794;29;20027;-63
2022/04/12 17:14:49;;;;;;;9.93;7.07;;;20.20;54.80;;;;;;4954779;29;20023;-65
2022/04/12 17:17:16;;;;;;;14.90;7.88;;;19.90;55.90;;;;;;4954771;29;20028;-64
2022/04/12 17:19:42;;;;;;;18.80;8.77;;;19.70;56.70;;;;;;4954813;29;20027;-65
2022/04/12 17:22:07;;;;;;;15.93;9.10;;;19.60;57.30;;;;;;4937500;29;20035;-65
2022/04/12 17:24:33;;;;;;;23.38;9.93;;;19.40;56.90;;;;;;4954198;29;20384;-66
2022/04/12 17:27:00;;;;;;;24.42;15.60;;;19.30;56.80;;;;;;4937337;29;20064;-64
2022/04/12 17:29:29;;;;;;;22.60;13.77;;;19.10;57.30;;;;;;4954709;29;20031;-65
2022/04/12 17:31:57;;;;;;;23.05;12.73;;;18.90;58.40;;;;;;4937277;29;20062;-63
2022/04/12 17:34:26;;;;;;;97.00;19.10;;;18.90;58.40;;;;;;4954768;29;20107;-62
2022/04/12 17:36:55;;;;;;;50.25;17.52;;;18.60;56.50;;;;;;4937004;29;20039;-64
2022/04/12 17:39:21;;;;;;;62.50;28.67;;;18.40;61.40;;;;;;4954157;29;20031;-64
2022/04/12 17:41:47;;;;;;;228.93;38.65;;;18.30;57.60;;;;;;4954598;29;20116;-64
2022/04/12 17:44:15;;;;;;;80.80;26.85;;;18.20;58.20;;;;;;4954682;28;20030;-64
2022/04/12 17:46:41;;;;;;;111.35;27.17;;;18.10;58.60;;;;;;4958240;29;20474;-64
2022/04/12 17:49:07;;;;;;;84.28;26.52;;;18.00;58.20;;;;;;4958299;29;20027;-64
2022/04/12 17:51:33;;;;;;;184.38;31.50;;;17.90;58.80;;;;;;4958265;29;20035;-64
2022/04/12 17:53:59;;;;;;;89.15;28.00;;;17.80;59.00;;;;;;4958192;29;20034;-64
2022/04/12 17:56:25;;;;;;;319.75;37.80;;;17.70;58.40;;;;;;4958045;29;20617;-64
2022/04/12 17:58:51;;;;;;;166.48;28.15;;;17.60;58.90;;;;;;4942315;29;20146;-63
2022/04/12 18:01:17;;;;;;;79.80;21.42;;;17.50;60.10;;;;;;4938815;29;20084;-63
2022/04/12 18:03:44;;;;;;;84.55;22.80;;;17.40;60.90;;;;;;4921763;29;20381;-63
2022/04/12 18:06:11;;;;;;;116.10;24.40;;;17.30;61.10;;;;;;4938673;29;20079;-63
2022/04/12 18:08:37;;;;;;;81.43;27.15;;;17.10;62.80;;;;;;4921456;29;20059;-63
2022/04/12 18:11:05;;;;;;;287.35;51.08;;;17.10;62.20;;;;;;4938565;29;20069;-63
2022/04/12 18:13:32;;;;;;;101.88;39.10;;;17.00;62.20;;;;;;4938698;29;20028;-63
2022/04/12 18:15:58;;;;;;;100.85;39.92;;;16.90;61.90;;;;;;4938522;29;20042;-63
2022/04/12 18:18:25;;;;;;;82.35;40.33;;;16.80;61.60;;;;;;4938308;29;20489;-63
2022/04/12 18:20:51;;;;;;;67.22;33.28;;;16.80;61.60;;;;;;4951530;29;20774;-63
2022/04/12 18:23:17;;;;;;;102.57;31.60;;;16.70;61.80;;;;;;4957642;29;20058;-64
2022/04/12 18:25:44;;;;;;;63.97;25.83;;;16.60;62.00;;;;;;4957506;29;20357;-64
2022/04/12 18:28:10;;;;;;;41.85;19.83;;;16.60;62.60;;;;;;4940383;29;20357;-66
2022/04/12 18:30:38;;;;;;;29.05;15.95;;;16.50;62.60;;;;;;4957623;29;20023;-66
2022/04/12 18:33:05;;;;;;;24.23;14.00;;;16.50;62.60;;;;;;4940243;29;20027;-64
2022/04/12 18:35:35;;;;;;;37.28;20.55;;;16.40;62.30;;;;;;4940111;29;20023;-65
2022/04/12 18:38:01;;;;;;;36.90;18.55;;;16.20;62.90;;;;;;4940164;29;20067;-66
2022/04/12 18:40:28;;;;;;;27.95;14.35;;;16.20;63.80;;;;;;4957700;29;20392;-67
2022/04/12 18:42:55;;;;;;;18.90;11.48;;;16.20;63.00;;;;;;4939939;29;20027;-64
2022/04/12 18:45:21;;;;;;;22.70;11.13;;;16.20;63.00;;;;;;4957307;29;20031;-65
2022/04/12 18:47:48;;;;;;;13.85;8.82;;;16.10;62.90;;;;;;4940011;29;20141;-63
2022/04/12 18:50:14;;;;;;;15.43;7.88;;;16.00;63.30;;;;;;4957237;29;20045;-63
2022/04/12 18:52:40;;;;;;;18.67;9.05;;;16.00;63.30;;;;;;4957075;29;20148;-64
2022/04/12 18:55:06;;;;;;;19.50;9.90;;;15.90;63.70;;;;;;4957104;29;20038;-63
2022/04/12 18:57:33;;;;;;;14.93;9.63;;;15.90;64.40;;;;;;4956073;28;20082;-63
2022/04/12 18:59:59;;;;;;;17.55;10.07;;;15.90;65.10;;;;;;4956980;29;20392;-63
2022/04/12 19:02:25;;;;;;;22.75;11.43;;;15.80;64.00;;;;;;4957122;29;20385;-63
2022/04/12 19:04:52;;;;;;;16.73;10.63;;;15.70;64.50;;;;;;4939557;29;20027;-63
2022/04/12 19:07:18;;;;;;;13.88;10.02;;;15.50;65.00;;;;;;4956870;29;20027;-63